Sheho, Canada
Current Conditions -  °F | °C
As of 10:00 AM on Friday 19 Dec 2014 (Local Time) from CYQV Reporting Station
Haze Haze  
Wind Chill: 23°   Ceiling: 500
Heat Index: 23°   Visibility: 3mi
Dew Point: 21°   Wind: 2mph
Humidity: 93%   Direction: NA
Pressure: 29.93"   Gusts: NA
Location:  51.58°N, 103.22°W
Report Text: CYQV 191600Z AUTO VRB02KT 3SM BR OVC005 M05/M06 A2993 RMK SLP170
Loading
Personal Weather Stations






























Interactive Weather Map New forecast layout! Learn more

10-Day Weather Forecast

Advertisements
Track Severe Weather on mobile